createdAt,value
2019-01-21T00:00:33.537Z,23.13
2019-01-21T00:03:14.667Z,21.27
2019-01-21T00:11:45.857Z,21.00
2019-01-21T00:19:44.312Z,20.70
2019-01-21T00:28:15.831Z,20.83
2019-01-21T00:36:47.578Z,19.90
2019-01-21T00:39:26.011Z,19.90
2019-01-21T00:50:37.149Z,20.70
2019-01-21T00:59:08.706Z,18.00
2019-01-21T01:05:00.238Z,18.77
2019-01-21T01:10:51.229Z,20.20
2019-01-21T01:24:42.482Z,20.43
2019-01-21T01:32:41.547Z,21.20
2019-01-21T01:43:20.241Z,21.93
2019-01-21T01:48:38.847Z,22.37
2019-01-21T01:53:57.420Z,21.57
2019-01-21T01:59:16.029Z,22.97
2019-01-21T02:07:47.629Z,21.97
2019-01-21T02:16:18.943Z,19.80
2019-01-21T02:21:37.169Z,20.00
2019-01-21T02:26:55.926Z,21.40
2019-01-21T02:32:14.726Z,22.73
2019-01-21T02:42:53.662Z,19.73
2019-01-21T02:48:12.094Z,21.23
2019-01-21T02:53:30.572Z,21.20
2019-01-21T02:58:49.187Z,23.90
2019-01-21T03:04:07.906Z,21.80
2019-01-21T03:09:26.478Z,21.83
2019-01-21T03:14:45.398Z,21.57
2019-01-21T03:25:24.346Z,22.07
2019-01-21T03:30:42.782Z,21.47
2019-01-21T03:33:26.571Z,19.87
2019-01-21T03:36:06.512Z,21.73
2019-01-21T03:38:47.621Z,21.27
2019-01-21T03:41:29.013Z,20.83
2019-01-21T03:44:10.267Z,21.23
2019-01-21T03:46:51.555Z,20.47
2019-01-21T03:49:32.241Z,22.57
2019-01-21T03:52:12.898Z,21.20
2019-01-21T03:54:54.526Z,21.37
2019-01-21T03:57:35.969Z,21.40
2019-01-21T04:03:52.063Z,21.70
2019-01-21T04:10:08.158Z,21.30
2019-01-21T04:13:15.553Z,20.97
2019-01-21T04:19:31.600Z,21.40
2019-01-21T04:22:38.984Z,20.97
2019-01-21T04:25:46.381Z,19.63
2019-01-21T04:28:53.786Z,20.67
2019-01-21T04:32:01.182Z,19.93
2019-01-21T04:35:08.572Z,21.47
2019-01-21T04:38:35.943Z,19.60
2019-01-21T04:41:43.346Z,20.07
2019-01-21T04:44:50.829Z,20.10
2019-01-21T04:47:58.190Z,22.37
2019-01-21T04:51:05.635Z,21.53
2019-01-21T04:57:02.000Z,20.40
2019-01-21T04:59:43.374Z,20.80
2019-01-21T05:02:24.525Z,20.33
2019-01-21T05:05:05.884Z,19.87
2019-01-21T05:07:46.826Z,19.67
2019-01-21T05:10:27.944Z,21.10
2019-01-21T05:13:08.758Z,20.97
2019-01-21T05:15:50.110Z,20.40
2019-01-21T05:18:57.594Z,20.40
2019-01-21T05:22:04.984Z,21.87
2019-01-21T05:25:12.403Z,22.13
2019-01-21T05:37:39.697Z,21.47
2019-01-21T05:40:20.867Z,22.83
2019-01-21T05:43:02.308Z,24.83
2019-01-21T05:45:42.848Z,25.23
2019-01-21T05:48:24.252Z,23.67
2019-01-21T05:51:05.713Z,24.33
2019-01-21T05:53:46.797Z,25.17
2019-01-21T05:56:28.101Z,24.53
2019-01-21T05:59:08.621Z,25.63
2019-01-21T06:01:49.299Z,25.33
2019-01-21T06:04:30.680Z,25.30
2019-01-21T06:07:11.762Z,26.30
2019-01-21T06:09:52.953Z,26.47
2019-01-21T06:12:34.182Z,26.50
2019-01-21T06:15:14.787Z,26.97
2019-01-21T06:18:15.223Z,28.80
2019-01-21T06:21:22.597Z,25.83
2019-01-21T06:24:29.978Z,25.83
2019-01-21T06:27:37.358Z,27.03
2019-01-21T06:30:44.813Z,26.90
2019-01-21T06:33:52.241Z,26.10
2019-01-21T06:36:59.633Z,26.27
2019-01-21T06:40:07.017Z,27.70
2019-01-21T06:52:52.566Z,27.23
2019-01-21T06:55:59.977Z,27.37
2019-01-21T06:59:07.367Z,27.30
2019-01-21T07:01:48.587Z,27.73
2019-01-21T07:04:29.740Z,24.90
2019-01-21T07:07:11.161Z,25.33
2019-01-21T07:09:52.554Z,28.03
2019-01-21T07:12:33.684Z,28.20
2019-01-21T07:15:14.973Z,29.20
2019-01-21T07:17:55.513Z,28.37
2019-01-21T07:20:36.872Z,28.50
2019-01-21T07:23:18.310Z,27.57
2019-01-21T07:25:59.549Z,28.23
2019-01-21T07:28:40.082Z,29.90
2019-01-21T07:31:21.267Z,26.70
2019-01-21T07:34:02.775Z,28.73
2019-01-21T07:36:44.077Z,29.03
2019-01-21T07:39:25.375Z,27.67
2019-01-21T07:42:06.623Z,30.20
2019-01-21T07:44:47.626Z,27.67
2019-01-21T07:47:28.809Z,27.60
2019-01-21T07:50:10.141Z,28.30
2019-01-21T07:52:51.497Z,27.77
2019-01-21T07:55:32.663Z,29.07
2019-01-21T07:58:13.939Z,27.07
2019-01-21T08:00:55.185Z,28.67
2019-01-21T08:03:36.547Z,29.60
2019-01-21T08:06:17.822Z,29.07
2019-01-21T08:08:59.166Z,29.50
2019-01-21T08:11:40.262Z,28.23
2019-01-21T08:14:20.803Z,28.57
2019-01-21T08:17:02.260Z,29.33
2019-01-21T08:19:43.646Z,28.97
2019-01-21T08:22:24.942Z,28.70
2019-01-21T08:25:06.083Z,29.73
2019-01-21T08:27:47.369Z,30.00
2019-01-21T08:30:28.486Z,30.40
2019-01-21T08:33:09.709Z,29.43
2019-01-21T08:35:50.298Z,31.83
2019-01-21T08:42:06.334Z,30.63
2019-01-21T08:45:13.746Z,30.63
2019-01-21T08:54:45.156Z,33.60
2019-01-21T08:57:52.542Z,29.27
2019-01-21T09:00:59.904Z,32.33
2019-01-21T09:03:40.644Z,29.50
2019-01-21T09:06:21.978Z,32.53
2019-01-21T09:09:03.281Z,31.33
2019-01-21T09:11:44.698Z,30.00
2019-01-21T09:14:25.812Z,29.30
2019-01-21T09:17:07.141Z,29.70
2019-01-21T09:19:47.656Z,28.17
2019-01-21T09:22:31.317Z,29.57
2019-01-21T09:25:12.870Z,28.10
2019-01-21T09:27:53.485Z,28.87
2019-01-21T09:34:09.498Z,29.10
2019-01-21T09:39:59.610Z,28.27
2019-01-21T09:42:40.849Z,29.37
2019-01-21T09:45:22.135Z,29.97
2019-01-21T09:48:03.523Z,28.90
2019-01-21T09:50:44.814Z,28.70
2019-01-21T09:53:24.025Z,30.80
2019-01-21T09:56:04.851Z,29.53
2019-01-21T09:58:46.255Z,30.00
2019-01-21T10:01:27.594Z,29.97
2019-01-21T10:04:08.905Z,30.13
2019-01-21T10:06:50.374Z,30.47
2019-01-21T10:09:30.915Z,31.90
2019-01-21T10:12:12.245Z,30.77
2019-01-21T10:14:53.321Z,28.53
2019-01-21T10:17:34.270Z,30.13
2019-01-21T10:20:15.583Z,30.30
2019-01-21T10:22:56.749Z,29.73
2019-01-21T10:25:38.118Z,30.63
2019-01-21T10:28:19.263Z,30.93
2019-01-21T10:31:00.601Z,30.63
2019-01-21T10:33:41.633Z,31.40
2019-01-21T10:36:22.882Z,30.57
2019-01-21T10:39:04.174Z,29.07
2019-01-21T10:41:45.541Z,29.57
2019-01-21T10:44:26.979Z,31.03
2019-01-21T10:47:08.311Z,29.67
2019-01-21T10:49:48.993Z,28.73
2019-01-21T10:52:30.334Z,27.63
2019-01-21T10:55:11.434Z,28.03
2019-01-21T10:57:52.762Z,29.40
2019-01-21T11:00:33.768Z,27.53
2019-01-21T11:03:15.208Z,25.83
2019-01-21T11:05:56.362Z,27.27
2019-01-21T11:08:37.698Z,25.47
2019-01-21T11:11:18.289Z,27.10
2019-01-21T11:13:59.681Z,26.10
2019-01-21T11:16:40.929Z,26.60
2019-01-21T11:19:22.305Z,26.87
2019-01-21T11:22:03.458Z,28.30
2019-01-21T11:24:44.819Z,27.40
2019-01-21T11:27:25.970Z,27.70
2019-01-21T11:30:07.385Z,29.43
2019-01-21T11:32:48.658Z,26.30
2019-01-21T11:35:29.895Z,27.73
2019-01-21T11:38:10.469Z,27.70
2019-01-21T11:40:51.879Z,27.07
2019-01-21T11:43:32.897Z,26.63
2019-01-21T11:46:14.378Z,26.73
2019-01-21T11:48:55.672Z,27.50
2019-01-21T11:51:37.006Z,27.87
2019-01-21T11:54:18.234Z,27.70
2019-01-21T11:56:59.425Z,26.13
2019-01-21T11:59:40.640Z,26.67
2019-01-21T12:02:21.759Z,27.37
2019-01-21T12:05:02.279Z,27.23
2019-01-21T12:07:43.595Z,27.10
2019-01-21T12:10:44.171Z,26.63
2019-01-21T12:13:51.525Z,25.80
2019-01-21T12:16:58.909Z,26.40
2019-01-21T12:20:06.279Z,25.70
2019-01-21T12:26:29.139Z,25.50
2019-01-21T12:32:45.169Z,24.63
2019-01-21T12:35:52.543Z,25.40
2019-01-21T12:41:49.169Z,23.57
2019-01-21T12:44:30.642Z,24.33
2019-01-21T12:47:11.830Z,26.63
2019-01-21T12:49:53.054Z,25.27
2019-01-21T12:52:34.507Z,24.83
2019-01-21T12:55:15.519Z,24.30
2019-01-21T12:57:56.803Z,24.67
2019-01-21T13:00:38.242Z,24.37
2019-01-21T13:03:19.349Z,24.43
2019-01-21T13:06:00.550Z,24.07
2019-01-21T13:08:41.870Z,24.63
2019-01-21T13:11:22.954Z,22.77
2019-01-21T13:14:04.162Z,24.03
2019-01-21T13:16:46.424Z,24.53
2019-01-21T13:19:27.306Z,24.60
2019-01-21T13:22:08.665Z,24.10
2019-01-21T13:24:51.004Z,23.63
2019-01-21T13:27:32.479Z,24.57
2019-01-21T13:30:13.704Z,25.27
2019-01-21T13:32:55.023Z,23.87
2019-01-21T13:35:36.272Z,24.20
2019-01-21T13:38:16.758Z,23.60
2019-01-21T13:40:58.183Z,23.90
2019-01-21T13:43:39.583Z,23.17
2019-01-21T13:46:20.928Z,25.37
2019-01-21T13:49:04.481Z,23.83
2019-01-21T13:55:13.213Z,24.33
2019-01-21T13:57:54.175Z,24.40
2019-01-21T14:00:35.298Z,22.87
2019-01-21T14:03:16.657Z,24.00
2019-01-21T14:06:00.037Z,24.07
2019-01-21T14:08:40.625Z,23.27
2019-01-21T14:11:21.738Z,23.03
2019-01-21T14:14:03.160Z,23.97
2019-01-21T14:16:44.242Z,23.77
2019-01-21T14:19:26.351Z,22.87
2019-01-21T14:22:07.574Z,21.53
2019-01-21T14:24:48.081Z,24.70
2019-01-21T14:27:29.799Z,23.03
2019-01-21T14:30:11.191Z,24.47
2019-01-21T14:32:52.697Z,23.17
2019-01-21T14:35:33.879Z,22.87
2019-01-21T14:38:15.047Z,22.83
2019-01-21T14:40:55.754Z,23.97
2019-01-21T14:43:36.920Z,22.87
2019-01-21T14:46:18.281Z,23.53
2019-01-21T14:49:04.573Z,23.87
2019-01-21T14:51:42.406Z,23.63
2019-01-21T14:54:22.961Z,23.53
2019-01-21T14:57:03.966Z,23.00
2019-01-21T14:59:44.561Z,23.87
2019-01-21T15:02:25.598Z,24.03
2019-01-21T15:05:27.085Z,24.07
2019-01-21T15:18:02.911Z,22.43
2019-01-21T15:21:10.306Z,23.40
2019-01-21T15:24:17.718Z,21.83
2019-01-21T15:27:25.214Z,22.73
2019-01-21T15:30:32.598Z,22.80
2019-01-21T15:33:40.010Z,22.40
2019-01-21T15:49:40.625Z,24.80
2019-01-21T15:52:48.034Z,23.70
2019-01-21T16:02:19.291Z,23.30
2019-01-21T16:05:26.646Z,23.87
2019-01-21T16:21:34.922Z,24.20
2019-01-21T16:24:42.347Z,23.73
2019-01-21T16:27:49.766Z,25.00
2019-01-21T16:30:57.142Z,24.37
2019-01-21T16:34:04.522Z,24.83
2019-01-21T16:37:11.969Z,25.17
2019-01-21T16:40:19.479Z,25.27
2019-01-21T16:43:07.582Z,27.50
2019-01-21T16:45:55.732Z,24.43
2019-01-21T16:48:43.810Z,25.93
2019-01-21T16:51:31.866Z,26.33
2019-01-21T16:54:19.945Z,26.00
2019-01-21T16:57:08.177Z,28.03
2019-01-21T16:59:56.235Z,26.77
2019-01-21T17:02:37.446Z,26.83
2019-01-21T17:05:18.506Z,27.07
2019-01-21T17:08:00.771Z,27.40
2019-01-21T17:10:41.851Z,27.63
2019-01-21T17:13:23.209Z,27.20
2019-01-21T17:16:04.592Z,25.57
2019-01-21T17:18:45.756Z,29.73
2019-01-21T17:21:27.809Z,27.03
2019-01-21T17:24:08.542Z,27.97
2019-01-21T17:26:49.258Z,28.60
2019-01-21T17:29:30.652Z,27.10
2019-01-21T17:32:11.197Z,27.60
2019-01-21T17:34:50.202Z,28.87
2019-01-21T17:37:38.358Z,27.33
2019-01-21T17:40:26.485Z,28.30
2019-01-21T17:46:28.613Z,26.93
2019-01-21T17:49:16.721Z,27.80
2019-01-21T17:52:24.713Z,27.33
2019-01-21T17:55:13.128Z,28.03
2019-01-21T17:58:01.185Z,27.70
2019-01-21T18:00:49.309Z,28.93
2019-01-21T18:03:30.244Z,27.07
2019-01-21T18:06:11.671Z,28.53
2019-01-21T18:08:52.250Z,27.37
2019-01-21T18:11:33.826Z,28.40
2019-01-21T18:14:14.901Z,29.80
2019-01-21T18:16:56.409Z,28.93
2019-01-21T18:19:37.510Z,28.13
2019-01-21T18:22:18.638Z,29.77
2019-01-21T18:24:57.846Z,29.27
2019-01-21T18:27:46.015Z,30.37
2019-01-21T18:30:34.142Z,30.63
2019-01-21T18:33:22.362Z,32.53
2019-01-21T18:36:10.483Z,31.23
2019-01-21T18:38:58.614Z,32.77
2019-01-21T18:41:39.812Z,30.63
2019-01-21T18:44:22.170Z,31.17
2019-01-21T18:47:03.494Z,30.53
2019-01-21T18:49:44.501Z,31.23
2019-01-21T18:52:25.784Z,29.33
2019-01-21T18:55:07.063Z,30.90
2019-01-21T18:57:48.274Z,31.43
2019-01-21T19:00:29.326Z,31.13
2019-01-21T19:03:10.447Z,31.33
2019-01-21T19:05:51.633Z,31.47
2019-01-21T19:08:32.970Z,31.20
2019-01-21T19:11:14.467Z,32.67
2019-01-21T19:13:55.623Z,31.00
2019-01-21T19:16:37.159Z,32.60
2019-01-21T19:19:18.531Z,31.13
2019-01-21T19:22:00.896Z,29.53
2019-01-21T19:24:43.031Z,31.73
2019-01-21T19:27:51.104Z,32.10
2019-01-21T19:30:36.323Z,29.73
2019-01-21T19:33:17.577Z,31.57
2019-01-21T19:35:59.145Z,29.57
2019-01-21T19:38:40.341Z,30.67
2019-01-21T19:41:21.110Z,32.57
2019-01-21T19:44:02.559Z,30.93
2019-01-21T19:46:44.251Z,30.87
2019-01-21T19:49:31.614Z,30.10
2019-01-21T19:52:19.774Z,31.30
2019-01-21T19:58:22.432Z,29.93
2019-01-21T20:01:30.526Z,31.77
2019-01-21T20:04:31.875Z,32.87
2019-01-21T20:07:13.000Z,33.73
2019-01-21T20:09:54.364Z,34.23
2019-01-21T20:12:35.813Z,34.80
2019-01-21T20:15:16.922Z,35.23
2019-01-21T20:17:58.615Z,34.87
2019-01-21T20:20:39.657Z,33.27
2019-01-21T20:23:21.154Z,36.37
2019-01-21T20:26:02.577Z,34.53
2019-01-21T20:28:46.030Z,34.80
2019-01-21T20:31:27.487Z,36.73
2019-01-21T20:34:08.854Z,36.77
2019-01-21T20:36:49.862Z,36.97
2019-01-21T20:39:31.080Z,34.83
2019-01-21T20:42:12.061Z,36.20
2019-01-21T20:44:53.200Z,37.43
2019-01-21T20:47:34.296Z,36.10
2019-01-21T20:50:15.650Z,36.87
2019-01-21T20:52:57.037Z,36.87
2019-01-21T20:55:38.264Z,36.10
2019-01-21T20:58:19.697Z,36.60
2019-01-21T21:01:00.974Z,36.77
2019-01-21T21:03:42.387Z,35.77
2019-01-21T21:06:23.670Z,34.33
2019-01-21T21:09:05.011Z,35.40
2019-01-21T21:11:46.264Z,35.90
2019-01-21T21:14:27.583Z,37.37
2019-01-21T21:17:08.831Z,35.80
2019-01-21T21:19:51.205Z,34.93
2019-01-21T21:22:32.072Z,35.30
2019-01-21T21:25:13.050Z,32.83
2019-01-21T21:27:53.554Z,36.10
2019-01-21T21:30:34.870Z,35.27
2019-01-21T21:33:16.649Z,34.47
2019-01-21T21:35:59.058Z,37.00
2019-01-21T21:38:40.430Z,33.67
2019-01-21T21:41:21.571Z,35.10
2019-01-21T21:44:02.780Z,34.23
2019-01-21T21:46:44.122Z,33.07
2019-01-21T21:49:25.603Z,32.40
2019-01-21T21:52:06.742Z,32.33
2019-01-21T21:54:48.013Z,31.47
2019-01-21T21:57:30.544Z,34.10
2019-01-21T22:00:11.757Z,32.77
2019-01-21T22:02:54.012Z,31.73
2019-01-21T22:05:35.493Z,31.20
2019-01-21T22:08:16.674Z,31.07
2019-01-21T22:10:58.943Z,31.27
2019-01-21T22:13:38.028Z,31.30
2019-01-21T22:19:39.735Z,31.07
2019-01-21T22:22:27.812Z,29.27
2019-01-21T22:25:15.948Z,31.90
2019-01-21T22:28:04.010Z,32.00
2019-01-21T22:30:52.143Z,31.23
2019-01-21T22:33:40.273Z,30.00
2019-01-21T22:36:28.406Z,30.67
2019-01-21T22:39:38.048Z,31.20
2019-01-21T22:42:26.169Z,32.27
2019-01-21T22:45:20.330Z,30.47
2019-01-21T22:48:15.240Z,29.97
2019-01-21T22:51:09.303Z,31.23
2019-01-21T22:54:08.860Z,31.27
2019-01-21T22:56:56.949Z,31.00
2019-01-21T22:59:45.073Z,31.93
2019-01-21T23:02:33.171Z,30.80
2019-01-21T23:05:14.561Z,32.57
2019-01-21T23:07:57.884Z,31.40
2019-01-21T23:10:39.179Z,33.07
2019-01-21T23:13:20.643Z,30.13
2019-01-21T23:16:02.051Z,30.73
2019-01-21T23:18:43.266Z,31.00
2019-01-21T23:21:23.789Z,32.23
2019-01-21T23:24:05.272Z,31.53
2019-01-21T23:26:46.874Z,33.27
2019-01-21T23:29:27.448Z,32.20
2019-01-21T23:32:08.748Z,32.70
2019-01-21T23:34:49.763Z,30.73
2019-01-21T23:37:31.150Z,31.83
2019-01-21T23:40:12.448Z,31.07
2019-01-21T23:42:53.771Z,32.77
2019-01-21T23:45:35.250Z,33.40
2019-01-21T23:48:16.731Z,33.30
2019-01-21T23:50:57.462Z,33.53
2019-01-21T23:53:38.616Z,32.77
2019-01-21T23:56:20.040Z,32.03
2019-01-21T23:59:01.662Z,33.20
